Vizconde de Eza — EAXB — position and weather

sailwx.info

Track history (hours):
 
Tides and Currents Weather Stations Pressure Air Temp Water Temp Dewpoint Dewpoint Depression Visibility Wind Speed Wind Dir Waves Ship Positions

Oceanographic research ship Vizconde de Eza (Spain)

Detailed information on ship capabilities available from University of Delaware's Ocean Information Center.

Last reported at 2015-Mar-30 22:33 UTC. Time now 2015-Mar-30 23:05 UTC.
Position N 39°23' E 001°52'.

Length 53 m; draft 6.2 m.

Type: Other ship. MMSI: 224582000.

Date/timePositionNaut miles runAvg speedWind from/ knotsBaromVisibWave heightAir tempDewpointWater temp
2015-Mar-30 22:33N 39°23' E 001°52'6 6.0
2015-Mar-30 21:33N 39°20' E 001°58'6 6.0
2015-Mar-30 20:33N 39°23' E 001°52'4 4.0
2015-Mar-30 19:33N 39°24' E 001°47'5 5.2
2015-Mar-30 18:33N 39°21' E 001°52'5 5.4
2015-Mar-30 17:34N 39°18' E 001°58'5 4.9
2015-Mar-30 16:33N 39°21' E 001°53'5 5.2
2015-Mar-30 15:33N 39°23' E 001°47'5 4.7
2015-Mar-30 14:33N 39°20' E 001°52'5 5.5
2015-Mar-30 13:33N 39°18' E 001°58'3 3.3
2015-Mar-30 12:33N 39°19' E 001°54'5 5.3
2015-Mar-30 11:33N 39°22' E 001°48'3 3.4
2015-Mar-30 10:33N 39°19' E 001°51'5 5.3
2015-Mar-30 09:33N 39°17' E 001°57'2 1.6
2015-Mar-30 08:33N 39°18' E 001°55'6 5.6
2015-Mar-30 07:33N 39°20' E 001°49'2 2.0
2015-Mar-30 06:33N 39°18' E 001°50'5 5.3
2015-Mar-30 05:33N 39°16' E 001°56'4 3.7
2015-Mar-30 04:33N 39°14' E 002°00'6 5.6
2015-Mar-30 03:33N 39°17' E 001°54'6 5.6
2015-Mar-30 02:33N 39°20' E 001°48'3 3.4
2015-Mar-30 01:33N 39°17' E 001°51'5 5.5
2015-Mar-30 00:33N 39°14' E 001°57'3 2.6
2015-Mar-29 23:33N 39°16' E 001°54'5 5.4
2015-Mar-29 22:33N 39°18' E 001°48'4 3.7
2015-Mar-29 21:33N 39°16' E 001°51'4 3.8
2015-Mar-29 20:33N 39°14' E 001°56'6 5.6
2015-Mar-29 19:33N 39°17' E 001°49'1 1.4
2015-Mar-29 18:33N 39°15' E 001°50'1 0.6
2015-Mar-29 17:33N 39°15' E 001°51'2 2.4
2015-Mar-29 16:33N 39°15' E 001°48'3 2.6
2015-Mar-29 15:33N 39°13' E 001°47'3 3.4
2015-Mar-29 14:33N 39°15' E 001°50'5 5.3
2015-Mar-29 13:33N 39°10' E 001°48'4 3.7
2015-Mar-29 12:33N 39°14' E 001°49'4 4.1
2015-Mar-29 11:33N 39°15' E 001°54'3 3.5
2015-Mar-29 10:33N 39°11' E 001°55'3 3.1
2015-Mar-29 09:33N 39°08' E 001°53'6 5.5
2015-Mar-29 08:33N 39°14' E 001°56'3 2.6
2015-Mar-29 07:33N 39°11' E 001°56'3 2.6
2015-Mar-29 06:33N 39°09' E 001°55'5 5.4
2015-Mar-29 05:33N 39°14' E 001°57'3 2.8
2015-Mar-29 04:33N 39°11' E 001°57'2 2.1
2015-Mar-29 03:33N 39°09' E 001°56'5 5.5
2015-Mar-29 02:33N 39°14' E 001°58'3 3.3
2015-Mar-29 01:33N 39°11' E 001°58'1 1.2
2015-Mar-29 00:33N 39°10' E 001°58'5 5.4
2015-Mar-28 23:33N 39°15' E 002°00'5 4.6
2015-Mar-28 22:33N 39°10' E 001°59'0 0.3
2015-Mar-28 21:33N 39°10' E 001°59'5 5.2
2015-Mar-28 20:33N 39°15' E 002°02'5 4.6
2015-Mar-28 19:33N 39°10' E 002°01'0 0.3
2015-Mar-28 18:33N 39°10' E 002°01'4 4.0
2015-Mar-28 17:33N 39°14' E 002°02'4 4.3
2015-Mar-28 16:33N 39°14' E 002°07'5 5.4
2015-Mar-28 15:33N 39°15' E 002°14'1 0.8
2015-Mar-28 14:33N 39°16' E 002°15'5 5.5
2015-Mar-28 13:33N 39°15' E 002°08'6 5.6
2015-Mar-28 12:34N 39°14' E 002°01'4 3.8
2015-Mar-28 11:33N 39°13' E 002°06'5 5.4
2015-Mar-28 10:33N 39°14' E 002°13'3 2.5
2015-Mar-28 09:33N 39°15' E 002°16'6 5.7
2015-Mar-28 08:33N 39°14' E 002°09'6 5.7
2015-Mar-28 07:33N 39°13' E 002°01'2 2.5
2015-Mar-28 06:33N 39°12' E 002°05'6 5.5
2015-Mar-28 05:33N 39°13' E 002°11'5 5.3
2015-Mar-28 04:33N 39°14' E 002°18'5 5.4
2015-Mar-28 03:33N 39°13' E 002°11'5 5.4
2015-Mar-28 02:33N 39°12' E 002°04'3 3.0
2015-Mar-28 01:33N 39°10' E 002°01'6 5.5
2015-Mar-28 00:33N 39°11' E 002°08'6 5.6
2015-Mar-27 23:33N 39°12' E 002°15'1 1.5
2015-Mar-27 22:34N 39°12' E 002°13'5 5.4
2015-Mar-27 21:33N 39°11' E 002°07'5 5.2
2015-Mar-27 20:33N 39°10' E 002°00'5 4.7
2015-Mar-27 19:33N 39°10' E 002°06'5 5.4
2015-Mar-27 18:33N 39°11' E 002°13'6 5.7
2015-Mar-27 17:33N 39°12' E 002°20'3 2.8
2015-Mar-27 16:33N 39°12' E 002°24'6 5.8
2015-Mar-27 15:33N 39°11' E 002°16'6 5.7
2015-Mar-27 14:33N 39°10' E 002°09'5 5.4
2015-Mar-27 13:33N 39°09' E 002°02'2 1.6
2015-Mar-27 12:33N 39°08' E 002°04'6 5.7
2015-Mar-27 11:33N 39°09' E 002°11'6 5.6
2015-Mar-27 10:33N 39°10' E 002°18'5 5.5
2015-Mar-27 09:33N 39°11' E 002°25'5 5.4
2015-Mar-27 08:33N 39°10' E 002°18'5 5.3
2015-Mar-27 07:33N 39°09' E 002°11'5 5.2
2015-Mar-27 06:33N 39°08' E 002°05'5 4.7
2015-Mar-27 05:33N 39°06' E 001°60'3 2.7
2015-Mar-27 04:33N 39°08' E 001°60'5 4.8
2015-Mar-27 03:33N 39°04' E 001°60'5 4.8
2015-Mar-27 02:33N 39°08' E 001°59'5 5.2
2015-Mar-27 01:33N 39°03' E 001°59'5 4.8
2015-Mar-27 00:33N 39°08' E 001°58'4 4.3
2015-Mar-26 23:33N 39°03' E 001°58'3 3.4
2015-Mar-26 22:34N 39°07' E 001°57'2 1.9
2015-Mar-26 21:33N 39°05' E 001°57'1 0.9
2015-Mar-26 20:33N 39°05' E 001°56'2 1.9
2015-Mar-26 19:33N 39°07' E 001°56'4 3.8
2015-Mar-26 18:33N 39°03' E 001°55'5 5.4
2015-Mar-26 17:34N 39°08' E 001°55'5 5.2
2015-Mar-26 16:33N 39°03' E 001°55'4 3.8
2015-Mar-26 15:33N 39°07' E 001°54'2 1.8
2015-Mar-26 14:33N 39°05' E 001°54'5 5.4
2015-Mar-26 13:33N 39°00' E 001°56'4 4.1
2015-Mar-26 12:33N 38°57' E 001°60'2 1.5
2015-Mar-26 11:33N 38°56' E 001°58'4 3.7
2015-Mar-26 10:33N 39°00' E 001°58'5 4.8
2015-Mar-26 09:31N 38°57' E 002°03'5 5.1
2015-Mar-26 08:33N 38°54' E 002°08'15 5.1
2015-Mar-26 05:33N 38°46' E 002°25'1 1.3
2015-Mar-26 04:33N 38°44' E 002°24'4 4.3
2015-Mar-26 03:33N 38°40' E 002°23'6 5.7
2015-Mar-26 02:31N 38°46' E 002°24'6 6.5
2015-Mar-26 01:33N 38°52' E 002°25'4 4.0
2015-Mar-26 00:33N 38°48' E 002°24'6 5.5
2015-Mar-25 23:33N 38°43' E 002°22'1 0.7
2015-Mar-25 22:33N 38°42' E 002°22'5 5.5
2015-Mar-25 21:33N 38°47' E 002°23'5 5.4
2015-Mar-25 20:33N 38°53' E 002°25'6 5.8
2015-Mar-25 19:33N 38°47' E 002°23'6 6.4
2015-Mar-25 18:33N 38°41' E 002°22'2 2.4
2015-Mar-25 17:33N 38°43' E 002°21'5 5.0
2015-Mar-25 16:27N 38°48' E 002°22'5 5.1
2015-Mar-25 15:32N 38°53' E 002°23'5 5.5
2015-Mar-25 14:33N 38°58' E 002°25'4 4.2
2015-Mar-25 13:33N 39°02' E 002°23'2 1.7
2015-Mar-25 12:33N 39°04' E 002°24'1010.3
2015-Mar-25 11:33N 39°14' E 002°25'1110.7
2015-Mar-25 10:33N 39°25' E 002°25'7 7.3
2015-Mar-25 09:33N 39°31' E 002°20'8 7.6
2015-Mar-25 08:33N 39°39' E 002°18'10 9.7
2015-Mar-25 07:33N 39°45' E 002°28'10 9.6
2015-Mar-25 06:33N 39°52' E 002°37'9 9.5
2015-Mar-25 05:33N 39°59' E 002°45'10 9.6
2015-Mar-25 04:33N 40°06' E 002°54'10 9.6
2015-Mar-25 03:33N 40°12' E 003°04'10 9.8
2015-Mar-25 02:33N 40°18' E 003°14'1010.0
2015-Mar-25 01:33N 40°25' E 003°23'1110.0
2015-Mar-25 00:27N 40°32' E 003°34'29 1.0
2015-Mar-23 18:04N 40°40' E 004°10'2 2.6
2015-Mar-23 17:06N 40°43' E 004°11'4 5.6
2015-Mar-23 16:24N 40°39' E 004°13'7 5.4
2015-Mar-23 15:09N 40°32' E 004°15'15 4.1
2015-Mar-23 11:32N 40°47' E 004°10'7 0.4
2015-Mar-22 18:25N 40°54' E 004°11'  
Track history (hours):
 
Tides and Currents Weather Stations Pressure Air Temp Water Temp Dewpoint Dewpoint Depression Visibility Wind Speed Wind Dir Waves Ship Positions

Oceanographic research ship Vizconde de Eza (Spain)

Detailed information on ship capabilities available from University of Delaware's Ocean Information Center.

Last reported at 2015-Mar-30 22:33 UTC. Time now 2015-Mar-30 23:05 UTC.
Position N 39°23' E 001°52'.

Length 53 m; draft 6.2 m.

Type: Other ship. MMSI: 224582000.

Date/timePositionNaut miles runAvg speedWind from/ knotsBaromVisibWave heightAir tempDewpointWater temp
2015-Mar-30 22:33N 39°23' E 001°52'6 6.0
2015-Mar-30 21:33N 39°20' E 001°58'6 6.0
2015-Mar-30 20:33N 39°23' E 001°52'4 4.0
2015-Mar-30 19:33N 39°24' E 001°47'5 5.2
2015-Mar-30 18:33N 39°21' E 001°52'5 5.4
2015-Mar-30 17:34N 39°18' E 001°58'5 4.9
2015-Mar-30 16:33N 39°21' E 001°53'5 5.2
2015-Mar-30 15:33N 39°23' E 001°47'5 4.7
2015-Mar-30 14:33N 39°20' E 001°52'5 5.5
2015-Mar-30 13:33N 39°18' E 001°58'3 3.3
2015-Mar-30 12:33N 39°19' E 001°54'5 5.3
2015-Mar-30 11:33N 39°22' E 001°48'3 3.4
2015-Mar-30 10:33N 39°19' E 001°51'5 5.3
2015-Mar-30 09:33N 39°17' E 001°57'2 1.6
2015-Mar-30 08:33N 39°18' E 001°55'6 5.6
2015-Mar-30 07:33N 39°20' E 001°49'2 2.0
2015-Mar-30 06:33N 39°18' E 001°50'5 5.3
2015-Mar-30 05:33N 39°16' E 001°56'4 3.7
2015-Mar-30 04:33N 39°14' E 002°00'6 5.6
2015-Mar-30 03:33N 39°17' E 001°54'6 5.6
2015-Mar-30 02:33N 39°20' E 001°48'3 3.4
2015-Mar-30 01:33N 39°17' E 001°51'5 5.5
2015-Mar-30 00:33N 39°14' E 001°57'3 2.6
2015-Mar-29 23:33N 39°16' E 001°54'5 5.4
2015-Mar-29 22:33N 39°18' E 001°48'4 3.7
2015-Mar-29 21:33N 39°16' E 001°51'4 3.8
2015-Mar-29 20:33N 39°14' E 001°56'6 5.6
2015-Mar-29 19:33N 39°17' E 001°49'1 1.4
2015-Mar-29 18:33N 39°15' E 001°50'1 0.6
2015-Mar-29 17:33N 39°15' E 001°51'2 2.4
2015-Mar-29 16:33N 39°15' E 001°48'3 2.6
2015-Mar-29 15:33N 39°13' E 001°47'3 3.4
2015-Mar-29 14:33N 39°15' E 001°50'5 5.3
2015-Mar-29 13:33N 39°10' E 001°48'4 3.7
2015-Mar-29 12:33N 39°14' E 001°49'4 4.1
2015-Mar-29 11:33N 39°15' E 001°54'3 3.5
2015-Mar-29 10:33N 39°11' E 001°55'3 3.1
2015-Mar-29 09:33N 39°08' E 001°53'6 5.5
2015-Mar-29 08:33N 39°14' E 001°56'3 2.6
2015-Mar-29 07:33N 39°11' E 001°56'3 2.6
2015-Mar-29 06:33N 39°09' E 001°55'5 5.4
2015-Mar-29 05:33N 39°14' E 001°57'3 2.8
2015-Mar-29 04:33N 39°11' E 001°57'2 2.1
2015-Mar-29 03:33N 39°09' E 001°56'5 5.5
2015-Mar-29 02:33N 39°14' E 001°58'3 3.3
2015-Mar-29 01:33N 39°11' E 001°58'1 1.2
2015-Mar-29 00:33N 39°10' E 001°58'5 5.4
2015-Mar-28 23:33N 39°15' E 002°00'5 4.6
2015-Mar-28 22:33N 39°10' E 001°59'0 0.3
2015-Mar-28 21:33N 39°10' E 001°59'5 5.2
2015-Mar-28 20:33N 39°15' E 002°02'5 4.6
2015-Mar-28 19:33N 39°10' E 002°01'0 0.3
2015-Mar-28 18:33N 39°10' E 002°01'4 4.0
2015-Mar-28 17:33N 39°14' E 002°02'4 4.3
2015-Mar-28 16:33N 39°14' E 002°07'5 5.4
2015-Mar-28 15:33N 39°15' E 002°14'1 0.8
2015-Mar-28 14:33N 39°16' E 002°15'5 5.5
2015-Mar-28 13:33N 39°15' E 002°08'6 5.6
2015-Mar-28 12:34N 39°14' E 002°01'4 3.8
2015-Mar-28 11:33N 39°13' E 002°06'5 5.4
2015-Mar-28 10:33N 39°14' E 002°13'3 2.5
2015-Mar-28 09:33N 39°15' E 002°16'6 5.7
2015-Mar-28 08:33N 39°14' E 002°09'6 5.7
2015-Mar-28 07:33N 39°13' E 002°01'2 2.5
2015-Mar-28 06:33N 39°12' E 002°05'6 5.5
2015-Mar-28 05:33N 39°13' E 002°11'5 5.3
2015-Mar-28 04:33N 39°14' E 002°18'5 5.4
2015-Mar-28 03:33N 39°13' E 002°11'5 5.4
2015-Mar-28 02:33N 39°12' E 002°04'3 3.0
2015-Mar-28 01:33N 39°10' E 002°01'6 5.5
2015-Mar-28 00:33N 39°11' E 002°08'6 5.6
2015-Mar-27 23:33N 39°12' E 002°15'1 1.5
2015-Mar-27 22:34N 39°12' E 002°13'5 5.4
2015-Mar-27 21:33N 39°11' E 002°07'5 5.2
2015-Mar-27 20:33N 39°10' E 002°00'5 4.7
2015-Mar-27 19:33N 39°10' E 002°06'5 5.4
2015-Mar-27 18:33N 39°11' E 002°13'6 5.7
2015-Mar-27 17:33N 39°12' E 002°20'3 2.8
2015-Mar-27 16:33N 39°12' E 002°24'6 5.8
2015-Mar-27 15:33N 39°11' E 002°16'6 5.7
2015-Mar-27 14:33N 39°10' E 002°09'5 5.4
2015-Mar-27 13:33N 39°09' E 002°02'2 1.6
2015-Mar-27 12:33N 39°08' E 002°04'6 5.7
2015-Mar-27 11:33N 39°09' E 002°11'6 5.6
2015-Mar-27 10:33N 39°10' E 002°18'5 5.5
2015-Mar-27 09:33N 39°11' E 002°25'5 5.4
2015-Mar-27 08:33N 39°10' E 002°18'5 5.3
2015-Mar-27 07:33N 39°09' E 002°11'5 5.2
2015-Mar-27 06:33N 39°08' E 002°05'5 4.7
2015-Mar-27 05:33N 39°06' E 001°60'3 2.7
2015-Mar-27 04:33N 39°08' E 001°60'5 4.8
2015-Mar-27 03:33N 39°04' E 001°60'5 4.8
2015-Mar-27 02:33N 39°08' E 001°59'5 5.2
2015-Mar-27 01:33N 39°03' E 001°59'5 4.8
2015-Mar-27 00:33N 39°08' E 001°58'4 4.3
2015-Mar-26 23:33N 39°03' E 001°58'3 3.4
2015-Mar-26 22:34N 39°07' E 001°57'2 1.9
2015-Mar-26 21:33N 39°05' E 001°57'1 0.9
2015-Mar-26 20:33N 39°05' E 001°56'2 1.9
2015-Mar-26 19:33N 39°07' E 001°56'4 3.8
2015-Mar-26 18:33N 39°03' E 001°55'5 5.4
2015-Mar-26 17:34N 39°08' E 001°55'5 5.2
2015-Mar-26 16:33N 39°03' E 001°55'4 3.8
2015-Mar-26 15:33N 39°07' E 001°54'2 1.8
2015-Mar-26 14:33N 39°05' E 001°54'5 5.4
2015-Mar-26 13:33N 39°00' E 001°56'4 4.1
2015-Mar-26 12:33N 38°57' E 001°60'2 1.5
2015-Mar-26 11:33N 38°56' E 001°58'4 3.7
2015-Mar-26 10:33N 39°00' E 001°58'5 4.8
2015-Mar-26 09:31N 38°57' E 002°03'5 5.1
2015-Mar-26 08:33N 38°54' E 002°08'15 5.1
2015-Mar-26 05:33N 38°46' E 002°25'1 1.3
2015-Mar-26 04:33N 38°44' E 002°24'4 4.3
2015-Mar-26 03:33N 38°40' E 002°23'6 5.7
2015-Mar-26 02:31N 38°46' E 002°24'6 6.5
2015-Mar-26 01:33N 38°52' E 002°25'4 4.0
2015-Mar-26 00:33N 38°48' E 002°24'6 5.5
2015-Mar-25 23:33N 38°43' E 002°22'1 0.7
2015-Mar-25 22:33N 38°42' E 002°22'5 5.5
2015-Mar-25 21:33N 38°47' E 002°23'5 5.4
2015-Mar-25 20:33N 38°53' E 002°25'6 5.8
2015-Mar-25 19:33N 38°47' E 002°23'6 6.4
2015-Mar-25 18:33N 38°41' E 002°22'2 2.4
2015-Mar-25 17:33N 38°43' E 002°21'5 5.0
2015-Mar-25 16:27N 38°48' E 002°22'5 5.1
2015-Mar-25 15:32N 38°53' E 002°23'5 5.5
2015-Mar-25 14:33N 38°58' E 002°25'4 4.2
2015-Mar-25 13:33N 39°02' E 002°23'2 1.7
2015-Mar-25 12:33N 39°04' E 002°24'1010.3
2015-Mar-25 11:33N 39°14' E 002°25'1110.7
2015-Mar-25 10:33N 39°25' E 002°25'7 7.3
2015-Mar-25 09:33N 39°31' E 002°20'8 7.6
2015-Mar-25 08:33N 39°39' E 002°18'10 9.7
2015-Mar-25 07:33N 39°45' E 002°28'10 9.6
2015-Mar-25 06:33N 39°52' E 002°37'9 9.5
2015-Mar-25 05:33N 39°59' E 002°45'10 9.6
2015-Mar-25 04:33N 40°06' E 002°54'10 9.6
2015-Mar-25 03:33N 40°12' E 003°04'10 9.8
2015-Mar-25 02:33N 40°18' E 003°14'1010.0
2015-Mar-25 01:33N 40°25' E 003°23'1110.0
2015-Mar-25 00:27N 40°32' E 003°34'29 1.0
2015-Mar-23 18:04N 40°40' E 004°10'2 2.6
2015-Mar-23 17:06N 40°43' E 004°11'4 5.6
2015-Mar-23 16:24N 40°39' E 004°13'7 5.4
2015-Mar-23 15:09N 40°32' E 004°15'15 4.1
2015-Mar-23 11:32N 40°47' E 004°10'7 0.4
2015-Mar-22 18:25N 40°54' E 004°11'  

Dump ship's entire track history